Time;durP1;ratioP1;P1;durP2;ratioP2;P2;SDS_P1;SDS_P2;PMS_P1;PMS_P2;Temp;Humidity;BMP_temperature;BMP_pressure;BME280_temperature;BME280_humidity;BME280_pressure;Samples;Min_cycle;Max_cycle;Signal;HPM_P1;HPM_P2
2022/11/20 00:01:21;;;;;;;71.07;42.17;;;5.00;92.70;;;;;;5052163;28;20025;-73
2022/11/20 00:03:47;;;;;;;77.57;42.33;;;5.00;92.70;;;;;;5053049;28;20111;-75
2022/11/20 00:06:16;;;;;;;78.63;41.97;;;5.00;92.60;;;;;;5044029;28;20121;-74
2022/11/20 00:08:42;;;;;;;83.15;43.58;;;5.00;92.60;;;;;;5046848;28;20087;-75
2022/11/20 00:11:13;;;;;;;76.68;41.28;;;5.10;92.70;;;;;;5048853;28;20029;-75
2022/11/20 00:13:39;;;;;;;73.80;42.42;;;5.10;92.70;;;;;;5052318;28;20048;-74
2022/11/20 00:16:08;;;;;;;72.75;39.38;;;5.10;92.60;;;;;;5047456;28;20030;-73
2022/11/20 00:18:34;;;;;;;72.72;41.88;;;5.10;92.60;;;;;;5049580;28;20028;-72
2022/11/20 00:21:02;;;;;;;83.63;48.85;;;5.10;92.60;;;;;;5053068;28;20384;-73
2022/11/20 00:23:28;;;;;;;82.07;46.47;;;5.10;92.60;;;;;;5048892;28;20115;-73
2022/11/20 00:25:53;;;;;;;74.40;43.78;;;5.10;92.60;;;;;;5047345;28;20132;-73
2022/11/20 00:28:19;;;;;;;72.80;41.00;;;5.10;92.50;;;;;;5063925;28;20408;-74
2022/11/20 00:30:45;;;;;;;71.72;39.50;;;5.00;92.30;;;;;;5050832;28;20086;-74
2022/11/20 00:33:11;;;;;;;75.07;41.58;;;5.00;92.40;;;;;;5050785;28;20052;-73
2022/11/20 00:35:36;;;;;;;77.72;42.63;;;5.10;92.50;;;;;;5048590;28;20029;-74
2022/11/20 00:38:02;;;;;;;73.28;40.05;;;5.00;92.40;;;;;;5048170;28;20893;-74
2022/11/20 00:40:28;;;;;;;75.93;40.92;;;5.00;92.50;;;;;;5049597;28;20063;-73
2022/11/20 00:42:54;;;;;;;72.22;42.80;;;5.10;92.50;;;;;;5049267;28;20033;-75
2022/11/20 00:45:20;;;;;;;76.35;40.15;;;5.00;92.30;;;;;;5054014;28;20444;-74
2022/11/20 00:47:46;;;;;;;73.57;42.60;;;5.00;92.40;;;;;;5049340;28;20040;-75
2022/11/20 00:50:11;;;;;;;70.15;39.08;;;5.00;92.30;;;;;;5052935;28;20041;-76
2022/11/20 00:52:37;;;;;;;76.85;44.33;;;5.10;92.40;;;;;;5058827;28;20039;-73
2022/11/20 00:55:03;;;;;;;74.43;41.75;;;5.10;92.40;;;;;;5049469;28;20531;-74
2022/11/20 00:57:29;;;;;;;73.78;41.85;;;5.10;92.40;;;;;;5049267;28;20032;-73
2022/11/20 00:59:54;;;;;;;75.95;43.10;;;5.20;92.30;;;;;;5050802;28;20507;-73
2022/11/20 01:02:20;;;;;;;76.43;42.85;;;5.10;92.20;;;;;;5047266;28;20044;-74
2022/11/20 01:04:46;;;;;;;78.97;42.17;;;5.10;92.30;;;;;;5054448;28;20098;-73
2022/11/20 01:07:11;;;;;;;70.43;40.95;;;5.10;92.10;;;;;;5050965;28;20029;-74
2022/11/20 01:09:37;;;;;;;78.10;43.38;;;5.20;92.10;;;;;;5053760;28;20044;-73
2022/11/20 01:12:03;;;;;;;74.55;41.92;;;5.10;91.90;;;;;;5050910;28;20045;-73
2022/11/20 01:14:28;;;;;;;75.25;42.17;;;5.10;91.90;;;;;;5054987;28;20124;-74
2022/11/20 01:16:54;;;;;;;66.55;39.85;;;5.10;91.90;;;;;;5054837;28;20060;-73
2022/11/20 01:19:22;;;;;;;73.32;41.05;;;5.10;92.00;;;;;;5048101;28;20468;-75
2022/11/20 01:21:51;;;;;;;77.05;42.13;;;5.10;91.90;;;;;;5048140;28;20037;-75
2022/11/20 01:24:18;;;;;;;72.93;41.33;;;5.10;91.80;;;;;;5049723;28;20032;-72
2022/11/20 01:26:47;;;;;;;78.28;42.28;;;5.10;91.90;;;;;;5058361;28;20139;-74
2022/11/20 01:29:22;;;;;;;74.75;40.97;;;5.10;91.90;;;;;;5053411;28;20041;-73
2022/11/20 01:31:47;;;;;;;75.30;41.53;;;5.10;91.90;;;;;;5044449;28;20040;-73
2022/11/20 01:34:16;;;;;;;77.03;40.30;;;5.10;91.90;;;;;;5061466;28;20527;-73
2022/11/20 01:36:43;;;;;;;78.43;41.33;;;5.20;92.00;;;;;;5050258;28;20156;-73
2022/11/20 01:39:18;;;;;;;82.07;43.47;;;5.20;92.00;;;;;;5045637;28;20418;-73
2022/11/20 01:44:50;;;;;;;78.45;40.88;;;5.20;91.90;;;;;;5042369;28;20421;-73
2022/11/20 01:47:37;;;;;;;;;;;5.20;91.90;;;;;;5064250;28;20438;-74
2022/11/20 01:50:14;;;;;;;84.57;41.83;;;5.20;91.90;;;;;;5049416;28;19981;-73
2022/11/20 01:52:46;;;;;;;92.18;44.20;;;5.20;91.90;;;;;;5049411;28;20037;-73
2022/11/20 01:55:25;;;;;;;91.45;45.85;;;5.20;91.70;;;;;;5045566;28;20028;-74
2022/11/20 01:57:52;;;;;;;87.18;44.25;;;5.20;91.50;;;;;;5046406;28;20040;-74
2022/11/20 02:00:19;;;;;;;82.80;44.80;;;5.20;91.60;;;;;;5046885;28;20039;-74
2022/11/20 02:02:51;;;;;;;96.07;44.90;;;5.20;91.70;;;;;;5046517;28;20317;-73
2022/11/20 02:05:26;;;;;;;92.63;45.47;;;5.30;91.70;;;;;;5046569;28;20049;-74
2022/11/20 02:07:54;;;;;;;98.47;46.78;;;5.30;91.60;;;;;;5051567;28;20033;-74
2022/11/20 02:10:20;;;;;;;100.28;46.17;;;5.30;91.70;;;;;;5047203;28;20427;-74
2022/11/20 02:15:33;;;;;;;90.85;45.10;;;5.20;91.70;;;;;;5048166;28;20133;-74
2022/11/20 02:17:59;;;;;;;105.80;47.78;;;5.30;91.70;;;;;;5051141;28;20090;-74
2022/11/20 02:20:25;;;;;;;100.78;45.70;;;5.20;91.70;;;;;;5052050;28;20045;-74
2022/11/20 02:22:54;;;;;;;99.57;45.03;;;5.20;91.90;;;;;;5050000;28;20147;-74
2022/11/20 02:25:20;;;;;;;98.40;45.75;;;5.30;91.90;;;;;;5048965;28;20048;-74
2022/11/20 02:27:47;;;;;;;101.28;47.08;;;5.30;91.90;;;;;;5051549;28;20064;-74
2022/11/20 02:30:12;;;;;;;95.60;46.17;;;5.30;92.00;;;;;;5045359;28;20044;-73
2022/11/20 02:32:38;;;;;;;103.05;46.08;;;5.30;92.00;;;;;;5043718;28;20575;-74
2022/11/20 02:35:08;;;;;;;106.60;47.78;;;5.40;92.10;;;;;;5044631;28;20045;-74
2022/11/20 02:37:38;;;;;;;92.90;45.05;;;5.40;92.00;;;;;;5040888;28;20044;-73
2022/11/20 02:40:04;;;;;;;97.88;45.75;;;5.40;92.10;;;;;;5047597;28;20040;-74
2022/11/20 02:42:30;;;;;;;101.95;47.80;;;5.40;92.10;;;;;;5054051;28;20056;-72
2022/11/20 02:44:55;;;;;;;101.35;47.85;;;5.40;92.10;;;;;;5045050;28;20481;-72
2022/11/20 02:47:21;;;;;;;102.28;48.45;;;5.40;92.20;;;;;;5049373;28;20165;-74
2022/11/20 02:49:46;;;;;;;98.75;46.33;;;5.50;92.20;;;;;;5049190;28;20343;-74
2022/11/20 02:52:12;;;;;;;104.28;48.92;;;5.40;92.20;;;;;;5050089;28;20351;-74
2022/11/20 02:54:38;;;;;;;102.75;48.45;;;5.40;92.20;;;;;;5050581;28;20048;-74
2022/11/20 02:57:03;;;;;;;106.78;47.92;;;5.40;92.20;;;;;;5046051;28;20043;-73
2022/11/20 02:59:29;;;;;;;104.97;47.85;;;5.40;92.30;;;;;;5054697;28;20045;-73
2022/11/20 03:01:55;;;;;;;105.88;50.65;;;5.50;92.30;;;;;;5045393;28;20028;-75
2022/11/20 03:04:20;;;;;;;97.20;47.22;;;5.50;92.30;;;;;;5046581;28;20080;-75
2022/11/20 03:06:46;;;;;;;99.90;46.17;;;5.50;92.30;;;;;;5047409;28;20033;-72
2022/11/20 03:09:12;;;;;;;111.78;51.88;;;5.60;92.40;;;;;;5049887;28;20037;-75
2022/11/20 03:11:37;;;;;;;115.38;57.10;;;5.50;92.30;;;;;;5047807;28;20175;-72
2022/11/20 03:14:04;;;;;;;98.40;48.80;;;5.60;92.40;;;;;;5049075;28;20390;-74
2022/11/20 03:16:30;;;;;;;105.63;51.92;;;5.60;92.30;;;;;;5051644;28;20131;-73
2022/11/20 03:18:56;;;;;;;108.10;49.17;;;5.50;92.10;;;;;;5054392;28;20048;-73
2022/11/20 03:21:23;;;;;;;96.93;43.88;;;5.60;92.20;;;;;;5046788;28;20416;-73
2022/11/20 03:23:48;;;;;;;96.68;45.70;;;5.60;92.20;;;;;;5052433;28;20145;-73
2022/11/20 03:26:16;;;;;;;100.22;47.63;;;5.60;92.10;;;;;;5051245;28;20471;-73
2022/11/20 03:28:45;;;;;;;109.28;48.08;;;5.60;92.20;;;;;;5048311;28;20041;-73
2022/11/20 03:31:13;;;;;;;104.80;45.50;;;5.60;92.20;;;;;;5045839;28;20036;-73
2022/11/20 03:33:40;;;;;;;103.45;47.30;;;5.50;92.20;;;;;;5045859;28;20916;-74
2022/11/20 03:36:11;;;;;;;102.85;46.40;;;5.60;92.20;;;;;;5049714;28;20068;-73
2022/11/20 03:38:38;;;;;;;110.47;48.63;;;5.60;92.20;;;;;;5047701;28;20045;-73
2022/11/20 03:41:24;;;;;;;113.18;49.80;;;5.50;92.30;;;;;;5050769;28;20076;-73
2022/11/20 03:43:55;;;;;;;102.82;47.97;;;5.50;92.30;;;;;;5047300;28;20029;-75
2022/11/20 03:46:21;;;;;;;104.25;48.60;;;5.60;92.40;;;;;;5045948;28;20032;-73
2022/11/20 03:48:47;;;;;;;102.72;47.78;;;5.60;92.50;;;;;;5045466;28;20052;-75
2022/11/20 03:51:20;;;;;;;114.18;51.15;;;5.60;92.50;;;;;;5047262;28;20373;-74
2022/11/20 03:53:48;;;;;;;103.45;46.35;;;5.60;92.50;;;;;;5045740;28;20075;-72
2022/11/20 03:56:15;;;;;;;101.25;44.25;;;5.60;92.50;;;;;;5051507;28;20384;-73
2022/11/20 03:58:41;;;;;;;98.55;45.58;;;5.60;92.50;;;;;;5049523;28;20862;-72
2022/11/20 04:01:08;;;;;;;100.90;44.65;;;5.60;92.50;;;;;;5050111;28;20029;-74
2022/11/20 04:03:34;;;;;;;97.25;44.08;;;5.60;92.50;;;;;;5058625;28;20037;-74
2022/11/20 04:06:12;;;;;;;104.97;45.33;;;5.60;92.50;;;;;;5065775;28;20124;-73
2022/11/20 04:08:38;;;;;;;106.43;44.95;;;5.50;92.50;;;;;;5050761;28;20048;-74
2022/11/20 04:11:11;;;;;;;93.88;42.95;;;5.60;92.60;;;;;;5054826;28;20033;-73
2022/11/20 04:13:37;;;;;;;98.38;45.70;;;5.60;92.60;;;;;;5065287;28;20041;-72
2022/11/20 04:16:03;;;;;;;92.65;42.03;;;5.60;92.60;;;;;;5051503;28;20491;-72
2022/11/20 04:18:29;;;;;;;96.88;43.65;;;5.50;92.70;;;;;;5048862;28;20025;-73
2022/11/20 04:20:57;;;;;;;95.22;43.33;;;5.50;92.60;;;;;;5053150;28;20146;-74
2022/11/20 04:23:22;;;;;;;86.47;40.60;;;5.50;92.60;;;;;;5051099;28;20369;-74
2022/11/20 04:25:48;;;;;;;84.10;40.28;;;5.40;92.60;;;;;;5049927;28;20068;-74
2022/11/20 04:28:14;;;;;;;88.65;41.63;;;5.50;92.60;;;;;;5051247;28;20036;-73
2022/11/20 04:30:39;;;;;;;91.78;42.17;;;5.40;92.60;;;;;;5053717;28;20076;-73
2022/11/20 04:33:05;;;;;;;86.22;41.25;;;5.40;92.60;;;;;;5055744;28;20064;-74
2022/11/20 04:35:34;;;;;;;86.28;39.78;;;5.40;92.70;;;;;;5055277;28;20045;-73
2022/11/20 04:38:00;;;;;;;96.00;41.13;;;5.40;92.70;;;;;;5055828;28;20388;-72
2022/11/20 04:40:26;;;;;;;88.28;43.47;;;5.30;92.80;;;;;;5050994;28;20037;-73
2022/11/20 04:42:51;;;;;;;84.45;40.47;;;5.40;93.00;;;;;;5053447;28;20442;-74
2022/11/20 04:45:17;;;;;;;80.70;40.33;;;5.40;93.00;;;;;;5052050;28;20052;-74
2022/11/20 04:47:42;;;;;;;82.43;39.25;;;5.40;92.90;;;;;;5049373;28;20191;-74
2022/11/20 04:50:08;;;;;;;82.25;40.30;;;5.40;92.80;;;;;;5053087;28;20032;-74
2022/11/20 04:52:34;;;;;;;85.45;40.22;;;5.30;92.80;;;;;;5048327;28;20040;-74
2022/11/20 04:55:00;;;;;;;89.38;41.63;;;5.30;92.90;;;;;;5058111;28;20063;-73
2022/11/20 04:57:25;;;;;;;83.90;40.78;;;5.30;92.90;;;;;;5057157;28;20372;-74
2022/11/20 04:59:51;;;;;;;82.78;42.67;;;5.30;92.90;;;;;;5052453;28;20036;-75
2022/11/20 05:02:17;;;;;;;80.68;40.65;;;5.30;92.90;;;;;;5055081;28;20143;-74
2022/11/20 05:04:42;;;;;;;77.70;38.05;;;5.40;92.90;;;;;;5044428;28;20132;-75
2022/11/20 05:07:08;;;;;;;79.82;38.28;;;5.40;92.90;;;;;;5047378;28;20448;-74
2022/11/20 05:09:34;;;;;;;74.80;38.42;;;5.40;92.80;;;;;;5050755;28;20032;-74
2022/11/20 05:11:59;;;;;;;76.18;38.13;;;5.40;92.90;;;;;;5049198;28;20044;-74
2022/11/20 05:14:25;;;;;;;73.97;38.03;;;5.40;92.80;;;;;;5046876;28;20573;-74
2022/11/20 05:16:51;;;;;;;67.18;35.40;;;5.30;92.80;;;;;;5042789;28;20115;-74
2022/11/20 05:19:16;;;;;;;75.78;37.80;;;5.30;92.90;;;;;;5045435;28;20044;-74
2022/11/20 05:21:42;;;;;;;70.53;36.55;;;5.30;92.90;;;;;;5050627;28;20497;-74
2022/11/20 05:24:07;;;;;;;71.97;38.90;;;5.30;92.90;;;;;;5046214;28;20068;-74
2022/11/20 05:26:33;;;;;;;67.70;36.85;;;5.30;92.90;;;;;;5057671;28;20064;-74
2022/11/20 05:28:59;;;;;;;70.80;36.97;;;5.30;92.90;;;;;;5051878;28;20025;-74
2022/11/20 05:31:25;;;;;;;78.85;39.42;;;5.40;92.90;;;;;;5045030;28;20087;-74
2022/11/20 05:33:51;;;;;;;72.25;36.60;;;5.40;93.00;;;;;;5047088;28;20095;-74
2022/11/20 05:36:17;;;;;;;67.13;34.22;;;5.40;93.00;;;;;;5051037;28;20029;-73
2022/11/20 05:38:43;;;;;;;68.47;35.95;;;5.40;92.90;;;;;;5065451;28;20311;-74
2022/11/20 05:41:20;;;;;;;66.07;34.58;;;5.50;93.00;;;;;;5046986;28;20500;-74
2022/11/20 05:43:46;;;;;;;66.60;35.42;;;5.50;93.00;;;;;;5058956;28;20034;-74
2022/11/20 05:46:13;;;;;;;67.88;33.92;;;5.50;93.00;;;;;;5056771;28;20154;-75
2022/11/20 05:48:41;;;;;;;62.15;34.15;;;5.60;93.00;;;;;;5050714;28;20036;-73
2022/11/20 05:51:09;;;;;;;66.15;33.65;;;5.60;93.00;;;;;;5052639;28;20115;-74
2022/11/20 05:53:36;;;;;;;64.03;33.13;;;5.60;93.00;;;;;;5050282;28;20045;-74
2022/11/20 05:56:06;;;;;;;66.10;34.65;;;5.60;93.00;;;;;;5048125;28;20040;-74
2022/11/20 05:58:32;;;;;;;62.25;33.55;;;5.60;92.90;;;;;;5048047;28;20033;-74
2022/11/20 06:01:10;;;;;;;66.13;33.85;;;5.60;93.00;;;;;;5049151;28;20126;-74
2022/11/20 06:03:36;;;;;;;60.97;32.42;;;5.60;92.90;;;;;;5061070;28;20071;-74
2022/11/20 06:06:03;;;;;;;61.88;33.10;;;5.60;93.00;;;;;;5048880;28;20033;-73
2022/11/20 06:08:29;;;;;;;67.80;33.80;;;5.60;93.00;;;;;;5047366;28;20029;-73
2022/11/20 06:10:55;;;;;;;69.28;34.80;;;5.70;93.00;;;;;;5050414;28;20330;-76
2022/11/20 06:13:21;;;;;;;69.28;34.63;;;5.60;93.00;;;;;;5044714;28;20509;-75
2022/11/20 06:15:50;;;;;;;67.80;35.42;;;5.70;93.10;;;;;;5049026;28;20079;-74
2022/11/20 06:18:16;;;;;;;73.00;36.75;;;5.60;93.10;;;;;;5047866;28;20041;-72
2022/11/20 06:20:42;;;;;;;73.40;35.97;;;5.70;93.00;;;;;;5047189;28;20044;-74
2022/11/20 06:23:08;;;;;;;78.60;37.65;;;5.70;93.00;;;;;;5056946;28;20056;-74
2022/11/20 06:25:37;;;;;;;82.88;36.85;;;5.70;93.10;;;;;;5047494;28;20061;-74
2022/11/20 06:28:02;;;;;;;91.57;36.42;;;5.70;93.10;;;;;;5053333;28;20039;-73
2022/11/20 06:30:28;;;;;;;75.57;34.63;;;5.70;93.10;;;;;;5055744;28;20060;-73
2022/11/20 06:32:54;;;;;;;89.70;38.78;;;5.70;93.10;;;;;;5054022;28;20051;-75
2022/11/20 06:35:19;;;;;;;91.95;36.55;;;5.70;93.10;;;;;;5050618;28;20485;-73
2022/11/20 06:37:45;;;;;;;89.22;39.25;;;5.70;93.20;;;;;;5053547;28;20043;-73
2022/11/20 06:40:11;;;;;;;87.38;36.55;;;5.70;93.10;;;;;;5046934;28;20035;-74
2022/11/20 06:42:37;;;;;;;86.97;37.85;;;5.80;93.20;;;;;;5048466;28;20032;-74
2022/11/20 06:45:02;;;;;;;94.97;37.42;;;5.80;93.20;;;;;;5049753;28;20460;-75
2022/11/20 06:47:28;;;;;;;88.60;37.20;;;5.80;93.20;;;;;;5055587;28;20082;-74
2022/11/20 06:49:54;;;;;;;83.22;37.88;;;5.80;93.20;;;;;;5049869;28;20353;-76
2022/11/20 06:52:19;;;;;;;85.18;35.25;;;5.80;93.30;;;;;;5050665;28;20106;-75
2022/11/20 06:54:45;;;;;;;90.30;38.10;;;5.80;93.30;;;;;;5051385;28;20064;-74
2022/11/20 06:57:10;;;;;;;97.72;37.83;;;5.70;93.30;;;;;;5046723;28;20118;-74
2022/11/20 06:59:36;;;;;;;94.38;39.13;;;5.80;93.40;;;;;;5047081;28;20049;-73
2022/11/20 07:02:02;;;;;;;93.97;36.65;;;5.80;93.40;;;;;;5047168;28;20574;-73
2022/11/20 07:04:27;;;;;;;92.63;38.35;;;5.80;93.40;;;;;;5050354;28;20036;-73
2022/11/20 07:06:53;;;;;;;99.60;41.22;;;5.80;93.40;;;;;;5047431;28;20132;-73
2022/11/20 07:09:19;;;;;;;99.60;38.10;;;5.80;93.40;;;;;;5053964;28;20083;-73
2022/11/20 07:11:44;;;;;;;98.05;39.08;;;5.80;93.40;;;;;;5046542;28;20118;-73
2022/11/20 07:14:10;;;;;;;80.50;35.47;;;5.80;93.40;;;;;;5047089;28;20045;-73
2022/11/20 07:16:35;;;;;;;93.32;37.80;;;5.80;93.50;;;;;;5046366;28;20032;-74
2022/11/20 07:19:04;;;;;;;101.93;38.47;;;5.80;93.50;;;;;;5045019;28;20123;-74
2022/11/20 07:21:29;;;;;;;99.65;39.42;;;5.80;93.50;;;;;;5043428;28;20089;-73
2022/11/20 07:23:55;;;;;;;98.13;38.00;;;5.80;93.50;;;;;;5047443;28;20052;-73
2022/11/20 07:26:21;;;;;;;88.15;38.00;;;5.80;93.60;;;;;;5053824;28;20040;-73
2022/11/20 07:28:46;;;;;;;90.22;37.03;;;5.90;93.70;;;;;;5045548;28;20045;-73
2022/11/20 07:31:12;;;;;;;89.32;37.40;;;5.90;93.70;;;;;;5046659;28;20210;-75
2022/11/20 07:33:38;;;;;;;90.07;37.75;;;5.90;93.70;;;;;;5049242;28;20116;-73
2022/11/20 07:36:04;;;;;;;81.70;35.15;;;6.00;93.70;;;;;;5049840;28;20059;-72
2022/11/20 07:38:30;;;;;;;84.80;37.72;;;6.00;93.80;;;;;;5046419;28;20087;-73
2022/11/20 07:40:57;;;;;;;92.53;39.00;;;6.00;93.80;;;;;;5048196;28;20365;-74
2022/11/20 07:43:23;;;;;;;89.32;38.67;;;6.00;93.80;;;;;;5049537;28;20037;-75
2022/11/20 07:45:49;;;;;;;89.25;36.60;;;6.00;93.80;;;;;;5047987;28;20050;-73
2022/11/20 07:48:15;;;;;;;82.63;37.38;;;6.00;93.80;;;;;;5045850;28;20980;-74
2022/11/20 07:50:41;;;;;;;91.30;36.83;;;6.00;93.80;;;;;;5048674;28;20553;-73
2022/11/20 07:53:06;;;;;;;78.55;36.33;;;6.10;93.90;;;;;;5041404;28;20057;-74
2022/11/20 07:55:32;;;;;;;82.82;36.97;;;6.10;93.90;;;;;;5062407;28;20405;-74
2022/11/20 07:57:58;;;;;;;83.63;36.30;;;6.10;93.90;;;;;;5045013;28;20033;-75
2022/11/20 08:00:25;;;;;;;88.50;37.97;;;6.10;93.90;;;;;;5047373;28;20061;-74
2022/11/20 08:02:51;;;;;;;84.82;40.00;;;6.10;94.00;;;;;;5050642;28;20048;-76
2022/11/20 08:05:17;;;;;;;84.82;36.40;;;6.10;94.00;;;;;;5045633;28;20040;-72
2022/11/20 08:07:43;;;;;;;84.57;37.50;;;6.20;94.00;;;;;;5045028;28;20128;-74
2022/11/20 08:10:12;;;;;;;69.82;34.40;;;6.20;94.10;;;;;;5048074;28;20040;-74
2022/11/20 08:15:32;;;;;;;75.65;33.95;;;6.20;94.10;;;;;;5050948;28;20542;-74
2022/11/20 08:18:10;;;;;;;71.80;32.83;;;6.30;94.10;;;;;;5048551;28;20500;-74
2022/11/20 08:20:37;;;;;;;79.20;34.60;;;6.30;94.10;;;;;;5062665;28;20495;-73
2022/11/20 08:23:05;;;;;;;79.93;34.72;;;6.30;94.20;;;;;;5045827;28;20056;-73
2022/11/20 08:25:32;;;;;;;82.97;35.25;;;6.30;94.10;;;;;;5047139;28;20049;-74
2022/11/20 08:28:03;;;;;;;71.20;34.88;;;6.30;94.10;;;;;;5043802;28;20028;-73
2022/11/20 08:30:29;;;;;;;74.78;33.55;;;6.40;94.20;;;;;;5049307;28;20040;-74
2022/11/20 08:33:00;;;;;;;72.90;35.70;;;6.40;94.10;;;;;;5047462;28;20021;-75
2022/11/20 08:35:26;;;;;;;68.32;33.45;;;6.40;94.10;;;;;;5047369;28;20064;-75
2022/11/20 08:37:52;;;;;;;70.95;32.83;;;6.50;94.10;;;;;;5049248;28;20028;-75
2022/11/20 08:40:17;;;;;;;72.35;33.88;;;6.50;94.10;;;;;;5048423;28;20055;-75
2022/11/20 08:42:50;;;;;;;71.38;33.97;;;6.50;94.10;;;;;;5047669;28;20044;-75
2022/11/20 08:45:17;;;;;;;67.60;31.88;;;6.60;94.20;;;;;;5054785;28;20045;-75
2022/11/20 08:47:44;;;;;;;62.92;31.40;;;6.60;94.20;;;;;;5051264;28;20060;-75
2022/11/20 08:50:11;;;;;;;64.95;30.98;;;6.60;94.20;;;;;;5052106;28;20040;-74
2022/11/20 08:52:37;;;;;;;61.92;30.75;;;6.70;94.10;;;;;;5048755;28;20037;-75
2022/11/20 08:55:05;;;;;;;63.75;31.30;;;6.70;94.10;;;;;;5053403;28;20132;-74
2022/11/20 08:57:34;;;;;;;61.33;31.73;;;6.80;94.00;;;;;;5050057;28;20039;-74
2022/11/20 09:00:00;;;;;;;67.35;33.10;;;6.80;94.00;;;;;;5049424;28;20415;-75
2022/11/20 09:02:26;;;;;;;64.15;29.55;;;6.90;94.00;;;;;;5048692;28;20049;-75
2022/11/20 09:04:53;;;;;;;60.90;30.58;;;6.90;93.90;;;;;;5046954;28;20553;-75
2022/11/20 09:07:19;;;;;;;61.83;29.50;;;7.00;93.90;;;;;;5048224;28;20522;-74
2022/11/20 09:09:44;;;;;;;50.75;27.73;;;7.00;93.70;;;;;;5048409;28;20135;-75
2022/11/20 09:12:10;;;;;;;57.22;29.02;;;7.10;93.80;;;;;;5047707;28;20278;-73
2022/11/20 09:14:35;;;;;;;55.60;28.40;;;7.10;93.60;;;;;;5048446;28;20119;-74
2022/11/20 09:17:01;;;;;;;53.30;27.33;;;7.10;93.40;;;;;;5048434;28;20116;-74
2022/11/20 09:19:27;;;;;;;45.90;23.35;;;7.20;93.40;;;;;;5046474;28;20037;-75
2022/11/20 09:21:53;;;;;;;48.53;22.50;;;7.20;93.20;;;;;;5048912;28;20029;-76
2022/11/20 09:24:20;;;;;;;45.25;22.88;;;7.20;93.00;;;;;;5052850;28;20517;-75
2022/11/20 09:26:46;;;;;;;41.25;20.88;;;7.30;92.90;;;;;;5044722;28;20041;-75
2022/11/20 09:29:11;;;;;;;41.80;20.92;;;7.40;92.80;;;;;;5064973;28;20104;-76
2022/11/20 09:31:37;;;;;;;41.00;21.45;;;7.50;92.60;;;;;;5046514;28;20798;-75
2022/11/20 09:34:03;;;;;;;36.83;20.77;;;7.60;92.40;;;;;;5046523;28;20063;-73
2022/11/20 09:36:29;;;;;;;35.47;18.75;;;7.60;92.10;;;;;;5047674;28;20035;-75
2022/11/20 09:38:56;;;;;;;37.03;17.92;;;7.70;91.80;;;;;;5051736;28;20052;-75
2022/11/20 09:41:55;;;;;;;30.63;18.48;;;7.70;91.40;;;;;;5050567;28;20037;-75
2022/11/20 09:44:44;;;;;;;32.58;16.77;;;7.70;91.00;;;;;;5041442;28;20045;-74
2022/11/20 09:47:41;;;;;;;30.52;16.30;;;7.90;91.00;;;;;;5041266;28;20151;-74
2022/11/20 09:50:32;;;;;;;30.80;17.00;;;7.90;90.60;;;;;;5046547;28;20045;-74
2022/11/20 09:53:30;;;;;;;29.60;15.73;;;8.00;90.30;;;;;;5042644;28;20021;-75
2022/11/20 09:55:56;;;;;;;27.98;15.27;;;8.00;89.90;;;;;;5046072;28;20572;-74
2022/11/20 09:58:41;;;;;;;26.23;14.82;;;8.10;89.70;;;;;;5051477;28;20093;-74
2022/11/20 10:01:14;;;;;;;;;;;8.10;89.40;;;;;;5048624;28;20063;-75
2022/11/20 10:03:53;;;;;;;22.77;12.90;;;8.20;89.30;;;;;;5048159;28;20384;-75
2022/11/20 10:06:28;;;;;;;26.05;13.95;;;8.20;89.20;;;;;;5050482;28;20064;-76
2022/11/20 10:09:04;;;;;;;23.42;11.65;;;8.30;89.30;;;;;;5044145;28;20085;-75
2022/11/20 10:11:51;;;;;;;19.60;10.57;;;8.20;89.10;;;;;;5045977;28;20473;-74
2022/11/20 10:14:35;;;;;;;22.27;11.27;;;8.30;89.10;;;;;;5048697;28;20133;-74
2022/11/20 10:17:19;;;;;;;16.05;8.95;;;8.30;88.90;;;;;;5048921;28;20128;-74
2022/11/20 10:20:06;;;;;;;16.38;9.55;;;8.40;88.70;;;;;;5057556;28;20044;-75
2022/11/20 10:22:46;;;;;;;15.63;10.57;;;8.40;88.40;;;;;;5049103;28;20060;-75
2022/11/20 10:25:18;;;;;;;18.90;11.68;;;8.50;88.20;;;;;;5046470;28;20103;-76
2022/11/20 10:27:47;;;;;;;16.30;8.90;;;8.50;88.00;;;;;;5046800;28;20043;-76
2022/11/20 10:30:15;;;;;;;13.52;6.85;;;8.50;88.10;;;;;;5047700;28;20067;-75
2022/11/20 10:32:43;;;;;;;11.75;6.47;;;8.60;87.80;;;;;;5045004;28;20059;-75
2022/11/20 10:35:09;;;;;;;12.05;7.00;;;8.60;87.60;;;;;;5051349;28;20110;-75
2022/11/20 10:37:37;;;;;;;19.65;14.50;;;8.60;87.50;;;;;;5046966;28;20036;-75
2022/11/20 10:40:03;;;;;;;23.88;15.63;;;8.60;87.30;;;;;;5050408;28;20045;-75
2022/11/20 10:42:46;;;;;;;13.07;7.43;;;8.60;87.00;;;;;;5052879;28;20093;-75
2022/11/20 10:45:24;;;;;;;13.70;8.00;;;8.60;86.70;;;;;;5046827;28;20052;-75
2022/11/20 10:47:52;;;;;;;10.32;6.32;;;8.60;86.80;;;;;;5049596;28;20052;-74
2022/11/20 10:50:21;;;;;;;13.77;7.20;;;8.60;86.80;;;;;;5052189;28;20049;-74
2022/11/20 10:53:20;;;;;;;13.63;5.78;;;8.60;86.80;;;;;;5048135;28;20036;-74
2022/11/20 10:56:03;;;;;;;10.68;5.80;;;8.60;86.70;;;;;;5039014;28;20049;-74
2022/11/20 10:58:45;;;;;;;10.18;5.07;;;8.70;86.90;;;;;;5050262;28;20226;-75
2022/11/20 11:01:17;;;;;;;11.27;4.97;;;8.60;86.80;;;;;;5050108;28;20048;-75
2022/11/20 11:03:43;;;;;;;18.25;10.80;;;8.70;86.80;;;;;;5041464;28;20044;-75
2022/11/20 11:06:21;;;;;;;22.23;14.05;;;8.70;86.80;;;;;;5045570;28;20070;-73
2022/11/20 11:08:49;;;;;;;13.70;7.78;;;8.60;86.90;;;;;;5042172;28;20132;-74
2022/11/20 11:11:31;;;;;;;10.93;6.90;;;8.50;87.20;;;;;;5057371;28;20111;-73
2022/11/20 11:14:14;;;;;;;14.70;6.97;;;8.40;87.60;;;;;;5048904;28;20032;-74
2022/11/20 11:16:51;;;;;;;11.82;7.78;;;8.40;88.20;;;;;;5045554;28;20044;-75
2022/11/20 11:19:17;;;;;;;14.52;7.90;;;8.30;88.60;;;;;;5041255;28;20462;-74
2022/11/20 11:21:48;;;;;;;12.45;7.15;;;8.30;88.90;;;;;;5050800;28;20097;-74
2022/11/20 11:24:27;;;;;;;11.45;5.35;;;8.20;89.00;;;;;;5041460;28;20044;-74
2022/11/20 11:26:58;;;;;;;11.95;6.00;;;8.10;89.20;;;;;;5037756;28;20029;-74
2022/11/20 11:29:29;;;;;;;13.20;6.70;;;8.10;89.50;;;;;;5040085;28;20095;-74
2022/11/20 11:32:12;;;;;;;15.75;6.63;;;8.10;89.70;;;;;;5045315;28;20052;-75
2022/11/20 11:34:38;;;;;;;13.82;6.65;;;8.10;89.90;;;;;;5043587;28;20033;-74
2022/11/20 11:37:05;;;;;;;9.65;6.05;;;8.10;90.10;;;;;;5042367;28;20025;-75
2022/11/20 11:39:33;;;;;;;11.98;6.13;;;8.10;90.10;;;;;;5047012;28;20062;-74
2022/11/20 11:42:00;;;;;;;12.98;6.28;;;8.10;90.30;;;;;;5043958;28;20306;-75
2022/11/20 11:47:47;;;;;;;12.88;7.03;;;8.20;90.50;;;;;;5040873;28;20031;-73
2022/11/20 11:50:12;;;;;;;13.05;7.15;;;8.10;90.80;;;;;;5042038;28;20064;-73
2022/11/20 11:53:11;;;;;;;14.05;6.35;;;8.10;90.80;;;;;;5044469;28;20043;-74
2022/11/20 11:55:56;;;;;;;12.93;7.53;;;8.10;91.00;;;;;;5047851;28;20171;-75
2022/11/20 11:58:44;;;;;;;12.23;7.05;;;8.10;91.20;;;;;;5044312;28;20044;-73
2022/11/20 12:01:34;;;;;;;13.00;7.18;;;8.10;91.60;;;;;;5048381;28;20040;-74
2022/11/20 12:04:14;;;;;;;13.45;8.35;;;8.10;91.90;;;;;;5035392;28;20047;-76
2022/11/20 12:06:44;;;;;;;13.65;7.53;;;8.10;92.00;;;;;;5043714;28;20068;-73
2022/11/20 12:09:11;;;;;;;13.77;7.55;;;8.10;92.20;;;;;;5061738;28;20101;-76
2022/11/20 12:12:18;;;;;;;15.40;7.30;;;8.10;92.20;;;;;;5057438;28;20033;-75
2022/11/20 12:14:47;;;;;;;17.80;8.85;;;8.10;92.20;;;;;;4951060;28;20402;-75
2022/11/20 12:17:14;;;;;;;14.55;8.77;;;8.10;92.30;;;;;;4962080;28;20202;-74
2022/11/20 12:19:40;;;;;;;13.57;8.50;;;8.10;92.30;;;;;;5008441;28;20079;-74
2022/11/20 12:22:24;;;;;;;14.85;8.32;;;8.10;92.40;;;;;;5061169;28;20029;-74
2022/11/20 12:25:11;;;;;;;12.65;8.27;;;8.20;92.50;;;;;;5047530;28;20487;-75
2022/11/20 12:27:54;;;;;;;13.32;7.47;;;8.20;92.60;;;;;;5045353;28;20510;-74
2022/11/20 12:30:22;;;;;;;16.40;9.00;;;8.30;92.70;;;;;;5047026;28;20103;-74
2022/11/20 12:33:12;;;;;;;16.38;9.65;;;8.20;92.70;;;;;;5048338;28;20415;-74
2022/11/20 12:35:57;;;;;;;10.40;7.35;;;8.30;93.00;;;;;;5045077;28;20035;-75
2022/11/20 12:38:41;;;;;;;;;;;8.30;93.00;;;;;;5050223;28;20052;-75
2022/11/20 12:47:50;;;;;;;9.73;6.95;;;8.30;92.90;;;;;;5046566;28;20052;-74
2022/11/20 12:51:01;;;;;;;8.68;6.07;;;8.40;93.00;;;;;;5048798;28;20112;-75
2022/11/20 12:53:29;;;;;;;7.95;6.15;;;8.40;92.90;;;;;;5024668;28;20033;-74
2022/11/20 12:56:22;;;;;;;7.78;5.43;;;8.30;93.00;;;;;;5064982;28;20041;-75
2022/11/20 12:59:25;;;;;;;9.70;4.85;;;8.30;93.00;;;;;;5050410;28;20437;-75
2022/11/20 13:02:15;;;;;;;7.93;5.68;;;8.30;93.00;;;;;;5060826;28;20075;-75
2022/11/20 13:05:16;;;;;;;10.20;6.07;;;8.30;93.00;;;;;;5067225;28;20095;-75
2022/11/20 13:07:44;;;;;;;7.68;4.88;;;8.40;93.00;;;;;;5039757;28;20566;-74
2022/11/20 13:10:41;;;;;;;8.05;4.72;;;8.40;93.00;;;;;;5059377;28;20040;-75